sensor_id;sensor_type;location;lat;lon;timestamp;P1;durP1;ratioP1;P2;durP2;ratioP2
21645;SDS011;10984;45.712;4.800;2023-03-01T00:01:25;12.73;;;7.32;;
21645;SDS011;10984;45.712;4.800;2023-03-01T00:03:53;12.55;;;6.95;;
21645;SDS011;10984;45.712;4.800;2023-03-01T00:06:19;13.90;;;7.60;;
21645;SDS011;10984;45.712;4.800;2023-03-01T00:08:46;13.35;;;7.32;;
21645;SDS011;10984;45.712;4.800;2023-03-01T00:11:13;14.15;;;7.28;;
21645;SDS011;10984;45.712;4.800;2023-03-01T00:13:58;14.10;;;7.82;;
21645;SDS011;10984;45.712;4.800;2023-03-01T00:16:44;13.35;;;7.22;;
21645;SDS011;10984;45.712;4.800;2023-03-01T00:21:54;14.32;;;7.15;;
21645;SDS011;10984;45.712;4.800;2023-03-01T00:24:20;13.02;;;7.78;;
21645;SDS011;10984;45.712;4.800;2023-03-01T00:26:45;14.45;;;8.15;;
21645;SDS011;10984;45.712;4.800;2023-03-01T00:29:11;15.40;;;7.72;;
21645;SDS011;10984;45.712;4.800;2023-03-01T00:31:37;14.15;;;7.75;;
21645;SDS011;10984;45.712;4.800;2023-03-01T00:34:03;15.68;;;7.80;;
21645;SDS011;10984;45.712;4.800;2023-03-01T00:36:31;15.40;;;7.68;;
21645;SDS011;10984;45.712;4.800;2023-03-01T00:38:59;13.98;;;7.88;;
21645;SDS011;10984;45.712;4.800;2023-03-01T00:41:25;17.70;;;8.52;;
21645;SDS011;10984;45.712;4.800;2023-03-01T00:43:52;14.38;;;7.90;;
21645;SDS011;10984;45.712;4.800;2023-03-01T00:46:19;15.27;;;8.00;;
21645;SDS011;10984;45.712;4.800;2023-03-01T00:48:47;15.25;;;7.78;;
21645;SDS011;10984;45.712;4.800;2023-03-01T00:51:14;14.50;;;8.10;;
21645;SDS011;10984;45.712;4.800;2023-03-01T00:53:42;14.55;;;7.57;;
21645;SDS011;10984;45.712;4.800;2023-03-01T00:56:08;16.38;;;8.00;;
21645;SDS011;10984;45.712;4.800;2023-03-01T00:58:35;14.77;;;7.50;;
21645;SDS011;10984;45.712;4.800;2023-03-01T01:01:07;17.65;;;8.35;;
21645;SDS011;10984;45.712;4.800;2023-03-01T01:03:41;14.00;;;7.72;;
21645;SDS011;10984;45.712;4.800;2023-03-01T01:06:12;15.18;;;7.97;;
21645;SDS011;10984;45.712;4.800;2023-03-01T01:08:57;14.25;;;8.05;;
21645;SDS011;10984;45.712;4.800;2023-03-01T01:11:24;16.35;;;8.35;;
21645;SDS011;10984;45.712;4.800;2023-03-01T01:13:51;15.80;;;7.95;;
21645;SDS011;10984;45.712;4.800;2023-03-01T01:16:17;14.13;;;7.72;;
21645;SDS011;10984;45.712;4.800;2023-03-01T01:18:45;16.17;;;7.95;;
21645;SDS011;10984;45.712;4.800;2023-03-01T01:21:13;17.25;;;8.15;;
21645;SDS011;10984;45.712;4.800;2023-03-01T01:23:40;18.13;;;8.25;;
21645;SDS011;10984;45.712;4.800;2023-03-01T01:26:08;17.05;;;8.70;;
21645;SDS011;10984;45.712;4.800;2023-03-01T01:28:53;15.48;;;8.48;;
21645;SDS011;10984;45.712;4.800;2023-03-01T01:31:20;16.23;;;7.75;;
21645;SDS011;10984;45.712;4.800;2023-03-01T01:33:48;16.42;;;9.18;;
21645;SDS011;10984;45.712;4.800;2023-03-01T01:36:14;20.70;;;10.15;;
21645;SDS011;10984;45.712;4.800;2023-03-01T01:38:40;17.45;;;8.52;;
21645;SDS011;10984;45.712;4.800;2023-03-01T01:41:07;18.88;;;9.23;;
21645;SDS011;10984;45.712;4.800;2023-03-01T01:43:37;16.98;;;8.90;;
21645;SDS011;10984;45.712;4.800;2023-03-01T01:46:16;18.50;;;9.00;;
21645;SDS011;10984;45.712;4.800;2023-03-01T01:52:11;16.67;;;8.93;;
21645;SDS011;10984;45.712;4.800;2023-03-01T01:57:47;14.32;;;8.50;;
21645;SDS011;10984;45.712;4.800;2023-03-01T02:00:18;17.67;;;7.70;;
21645;SDS011;10984;45.712;4.800;2023-03-01T02:05:56;19.10;;;8.85;;
21645;SDS011;10984;45.712;4.800;2023-03-01T02:08:41;15.75;;;8.30;;
21645;SDS011;10984;45.712;4.800;2023-03-01T02:11:08;17.73;;;8.68;;
21645;SDS011;10984;45.712;4.800;2023-03-01T02:13:35;16.20;;;8.75;;
21645;SDS011;10984;45.712;4.800;2023-03-01T02:18:45;15.77;;;8.13;;
21645;SDS011;10984;45.712;4.800;2023-03-01T02:23:42;16.77;;;8.85;;
21645;SDS011;10984;45.712;4.800;2023-03-01T02:29:11;15.80;;;8.82;;
21645;SDS011;10984;45.712;4.800;2023-03-01T02:31:37;16.98;;;9.20;;
21645;SDS011;10984;45.712;4.800;2023-03-01T02:34:23;16.98;;;8.05;;
21645;SDS011;10984;45.712;4.800;2023-03-01T02:36:58;22.25;;;9.43;;
21645;SDS011;10984;45.712;4.800;2023-03-01T02:39:38;15.02;;;8.15;;
21645;SDS011;10984;45.712;4.800;2023-03-01T02:42:08;17.75;;;8.95;;
21645;SDS011;10984;45.712;4.800;2023-03-01T02:44:37;17.80;;;9.18;;
21645;SDS011;10984;45.712;4.800;2023-03-01T02:47:03;16.92;;;9.32;;
21645;SDS011;10984;45.712;4.800;2023-03-01T02:49:31;23.73;;;10.20;;
21645;SDS011;10984;45.712;4.800;2023-03-01T02:54:46;19.50;;;9.55;;
21645;SDS011;10984;45.712;4.800;2023-03-01T02:57:17;21.60;;;9.57;;
21645;SDS011;10984;45.712;4.800;2023-03-01T02:59:44;16.02;;;8.15;;
21645;SDS011;10984;45.712;4.800;2023-03-01T03:02:19;24.13;;;9.43;;
21645;SDS011;10984;45.712;4.800;2023-03-01T03:05:11;19.67;;;9.50;;
21645;SDS011;10984;45.712;4.800;2023-03-01T03:07:40;16.58;;;9.02;;
21645;SDS011;10984;45.712;4.800;2023-03-01T03:10:09;18.23;;;8.30;;
21645;SDS011;10984;45.712;4.800;2023-03-01T03:12:37;17.80;;;9.38;;
21645;SDS011;10984;45.712;4.800;2023-03-01T03:15:04;18.17;;;10.20;;
21645;SDS011;10984;45.712;4.800;2023-03-01T03:17:34;17.10;;;9.05;;
21645;SDS011;10984;45.712;4.800;2023-03-01T03:20:02;20.25;;;9.45;;
21645;SDS011;10984;45.712;4.800;2023-03-01T03:22:29;19.13;;;9.45;;
21645;SDS011;10984;45.712;4.800;2023-03-01T03:24:55;17.00;;;8.98;;
21645;SDS011;10984;45.712;4.800;2023-03-01T03:27:20;20.25;;;9.82;;
21645;SDS011;10984;45.712;4.800;2023-03-01T03:29:46;17.63;;;9.10;;
21645;SDS011;10984;45.712;4.800;2023-03-01T03:32:11;15.75;;;8.57;;
21645;SDS011;10984;45.712;4.800;2023-03-01T03:34:37;19.65;;;9.82;;
21645;SDS011;10984;45.712;4.800;2023-03-01T03:37:02;16.25;;;8.65;;
21645;SDS011;10984;45.712;4.800;2023-03-01T03:39:28;18.67;;;9.20;;
21645;SDS011;10984;45.712;4.800;2023-03-01T03:41:59;16.33;;;8.80;;
21645;SDS011;10984;45.712;4.800;2023-03-01T03:44:25;16.60;;;8.77;;
21645;SDS011;10984;45.712;4.800;2023-03-01T03:46:51;15.63;;;8.52;;
21645;SDS011;10984;45.712;4.800;2023-03-01T03:49:17;17.88;;;8.73;;
21645;SDS011;10984;45.712;4.800;2023-03-01T03:51:44;19.38;;;8.70;;
21645;SDS011;10984;45.712;4.800;2023-03-01T03:54:11;18.17;;;9.18;;
21645;SDS011;10984;45.712;4.800;2023-03-01T03:56:36;16.55;;;9.18;;
21645;SDS011;10984;45.712;4.800;2023-03-01T03:59:02;16.88;;;8.68;;
21645;SDS011;10984;45.712;4.800;2023-03-01T04:01:27;23.33;;;10.07;;
21645;SDS011;10984;45.712;4.800;2023-03-01T04:03:53;18.75;;;8.85;;
21645;SDS011;10984;45.712;4.800;2023-03-01T04:06:19;20.63;;;9.27;;
21645;SDS011;10984;45.712;4.800;2023-03-01T04:08:45;16.10;;;9.05;;
21645;SDS011;10984;45.712;4.800;2023-03-01T04:11:11;20.73;;;9.60;;
21645;SDS011;10984;45.712;4.800;2023-03-01T04:13:57;16.85;;;9.15;;
21645;SDS011;10984;45.712;4.800;2023-03-01T04:16:24;19.23;;;9.10;;
21645;SDS011;10984;45.712;4.800;2023-03-01T04:18:50;15.57;;;8.35;;
21645;SDS011;10984;45.712;4.800;2023-03-01T04:21:17;17.08;;;8.73;;
21645;SDS011;10984;45.712;4.800;2023-03-01T04:23:45;18.25;;;9.60;;
21645;SDS011;10984;45.712;4.800;2023-03-01T04:26:10;17.88;;;8.95;;
21645;SDS011;10984;45.712;4.800;2023-03-01T04:28:37;20.02;;;9.85;;
21645;SDS011;10984;45.712;4.800;2023-03-01T04:31:23;16.10;;;9.20;;
21645;SDS011;10984;45.712;4.800;2023-03-01T04:33:50;23.27;;;9.23;;
21645;SDS011;10984;45.712;4.800;2023-03-01T04:36:17;17.23;;;9.43;;
21645;SDS011;10984;45.712;4.800;2023-03-01T04:38:44;19.50;;;10.02;;
21645;SDS011;10984;45.712;4.800;2023-03-01T04:41:29;21.58;;;10.02;;
21645;SDS011;10984;45.712;4.800;2023-03-01T04:43:54;20.52;;;8.75;;
21645;SDS011;10984;45.712;4.800;2023-03-01T04:46:20;19.92;;;10.05;;
21645;SDS011;10984;45.712;4.800;2023-03-01T04:48:46;19.88;;;10.40;;
21645;SDS011;10984;45.712;4.800;2023-03-01T04:51:12;20.02;;;9.30;;
21645;SDS011;10984;45.712;4.800;2023-03-01T04:53:38;18.52;;;10.23;;
21645;SDS011;10984;45.712;4.800;2023-03-01T04:56:04;17.38;;;9.30;;
21645;SDS011;10984;45.712;4.800;2023-03-01T04:58:31;16.35;;;8.52;;
21645;SDS011;10984;45.712;4.800;2023-03-01T05:00:57;16.95;;;9.07;;
21645;SDS011;10984;45.712;4.800;2023-03-01T05:03:22;18.67;;;9.55;;
21645;SDS011;10984;45.712;4.800;2023-03-01T05:05:49;17.48;;;8.73;;
21645;SDS011;10984;45.712;4.800;2023-03-01T05:08:16;18.80;;;8.45;;
21645;SDS011;10984;45.712;4.800;2023-03-01T05:11:00;19.67;;;9.55;;
21645;SDS011;10984;45.712;4.800;2023-03-01T05:13:26;17.05;;;8.77;;
21645;SDS011;10984;45.712;4.800;2023-03-01T05:15:54;16.58;;;8.55;;
21645;SDS011;10984;45.712;4.800;2023-03-01T05:18:39;17.38;;;8.45;;
21645;SDS011;10984;45.712;4.800;2023-03-01T05:21:06;16.58;;;8.93;;
21645;SDS011;10984;45.712;4.800;2023-03-01T05:23:33;17.60;;;9.30;;
21645;SDS011;10984;45.712;4.800;2023-03-01T05:26:00;19.65;;;9.98;;
21645;SDS011;10984;45.712;4.800;2023-03-01T05:28:27;17.58;;;9.02;;
21645;SDS011;10984;45.712;4.800;2023-03-01T05:30:53;20.15;;;9.65;;
21645;SDS011;10984;45.712;4.800;2023-03-01T05:33:19;16.80;;;8.88;;
21645;SDS011;10984;45.712;4.800;2023-03-01T05:35:47;21.38;;;9.93;;
21645;SDS011;10984;45.712;4.800;2023-03-01T05:38:13;18.95;;;9.93;;
21645;SDS011;10984;45.712;4.800;2023-03-01T05:40:41;19.50;;;9.32;;
21645;SDS011;10984;45.712;4.800;2023-03-01T05:43:08;21.52;;;9.52;;
21645;SDS011;10984;45.712;4.800;2023-03-01T05:45:35;19.20;;;9.52;;
21645;SDS011;10984;45.712;4.800;2023-03-01T05:48:02;20.77;;;9.45;;
21645;SDS011;10984;45.712;4.800;2023-03-01T05:50:31;16.25;;;9.73;;
21645;SDS011;10984;45.712;4.800;2023-03-01T05:52:59;20.08;;;9.98;;
21645;SDS011;10984;45.712;4.800;2023-03-01T05:55:27;20.42;;;10.73;;
21645;SDS011;10984;45.712;4.800;2023-03-01T05:57:54;17.73;;;9.30;;
21645;SDS011;10984;45.712;4.800;2023-03-01T06:00:20;20.35;;;9.65;;
21645;SDS011;10984;45.712;4.800;2023-03-01T06:02:49;16.63;;;8.23;;
21645;SDS011;10984;45.712;4.800;2023-03-01T06:05:16;16.83;;;9.13;;
21645;SDS011;10984;45.712;4.800;2023-03-01T06:07:43;21.33;;;10.63;;
21645;SDS011;10984;45.712;4.800;2023-03-01T06:10:09;18.25;;;9.80;;
21645;SDS011;10984;45.712;4.800;2023-03-01T06:12:36;15.93;;;8.70;;
21645;SDS011;10984;45.712;4.800;2023-03-01T06:15:03;19.33;;;9.98;;
21645;SDS011;10984;45.712;4.800;2023-03-01T06:17:30;21.30;;;9.80;;
21645;SDS011;10984;45.712;4.800;2023-03-01T06:19:57;21.58;;;10.55;;
21645;SDS011;10984;45.712;4.800;2023-03-01T06:22:23;19.75;;;9.57;;
21645;SDS011;10984;45.712;4.800;2023-03-01T06:24:49;17.75;;;9.32;;
21645;SDS011;10984;45.712;4.800;2023-03-01T06:27:15;19.73;;;10.10;;
21645;SDS011;10984;45.712;4.800;2023-03-01T06:29:40;19.05;;;11.02;;
21645;SDS011;10984;45.712;4.800;2023-03-01T06:32:06;18.50;;;11.10;;
21645;SDS011;10984;45.712;4.800;2023-03-01T06:34:33;21.92;;;11.27;;
21645;SDS011;10984;45.712;4.800;2023-03-01T06:36:59;19.17;;;10.10;;
21645;SDS011;10984;45.712;4.800;2023-03-01T06:39:24;20.48;;;10.55;;
21645;SDS011;10984;45.712;4.800;2023-03-01T06:41:52;21.15;;;10.30;;
21645;SDS011;10984;45.712;4.800;2023-03-01T06:44:18;24.10;;;11.52;;
21645;SDS011;10984;45.712;4.800;2023-03-01T06:46:43;21.45;;;11.02;;
21645;SDS011;10984;45.712;4.800;2023-03-01T06:49:09;24.50;;;11.88;;
21645;SDS011;10984;45.712;4.800;2023-03-01T06:51:36;22.27;;;12.07;;
21645;SDS011;10984;45.712;4.800;2023-03-01T06:54:02;19.95;;;10.73;;
21645;SDS011;10984;45.712;4.800;2023-03-01T06:56:29;21.65;;;10.32;;
21645;SDS011;10984;45.712;4.800;2023-03-01T06:58:55;21.77;;;10.77;;
21645;SDS011;10984;45.712;4.800;2023-03-01T07:01:21;19.33;;;10.68;;
21645;SDS011;10984;45.712;4.800;2023-03-01T07:03:47;20.92;;;10.48;;
21645;SDS011;10984;45.712;4.800;2023-03-01T07:06:12;22.67;;;12.10;;
21645;SDS011;10984;45.712;4.800;2023-03-01T07:08:38;24.08;;;10.40;;
21645;SDS011;10984;45.712;4.800;2023-03-01T07:11:04;20.15;;;11.30;;
21645;SDS011;10984;45.712;4.800;2023-03-01T07:13:30;20.05;;;10.52;;
21645;SDS011;10984;45.712;4.800;2023-03-01T07:15:56;19.02;;;10.40;;
21645;SDS011;10984;45.712;4.800;2023-03-01T07:18:22;17.42;;;9.68;;
21645;SDS011;10984;45.712;4.800;2023-03-01T07:20:48;20.33;;;9.93;;
21645;SDS011;10984;45.712;4.800;2023-03-01T07:23:14;17.77;;;10.00;;
21645;SDS011;10984;45.712;4.800;2023-03-01T07:25:40;19.45;;;10.25;;
21645;SDS011;10984;45.712;4.800;2023-03-01T07:28:06;18.60;;;9.93;;
21645;SDS011;10984;45.712;4.800;2023-03-01T07:30:32;19.23;;;9.82;;
21645;SDS011;10984;45.712;4.800;2023-03-01T07:32:57;21.05;;;10.45;;
21645;SDS011;10984;45.712;4.800;2023-03-01T07:35:24;23.30;;;10.57;;
21645;SDS011;10984;45.712;4.800;2023-03-01T07:37:51;22.75;;;11.15;;
21645;SDS011;10984;45.712;4.800;2023-03-01T07:40:17;21.30;;;11.43;;
21645;SDS011;10984;45.712;4.800;2023-03-01T07:42:43;17.95;;;9.55;;
21645;SDS011;10984;45.712;4.800;2023-03-01T07:45:08;20.67;;;10.48;;
21645;SDS011;10984;45.712;4.800;2023-03-01T07:47:34;20.65;;;10.60;;
21645;SDS011;10984;45.712;4.800;2023-03-01T07:50:00;20.77;;;10.60;;
21645;SDS011;10984;45.712;4.800;2023-03-01T07:52:27;20.13;;;10.60;;
21645;SDS011;10984;45.712;4.800;2023-03-01T07:54:53;20.15;;;9.57;;
21645;SDS011;10984;45.712;4.800;2023-03-01T07:57:18;20.67;;;10.68;;
21645;SDS011;10984;45.712;4.800;2023-03-01T07:59:44;20.95;;;11.13;;
21645;SDS011;10984;45.712;4.800;2023-03-01T08:02:10;24.00;;;11.32;;
21645;SDS011;10984;45.712;4.800;2023-03-01T08:04:36;21.65;;;11.02;;
21645;SDS011;10984;45.712;4.800;2023-03-01T08:07:04;20.30;;;10.93;;
21645;SDS011;10984;45.712;4.800;2023-03-01T08:09:30;19.92;;;10.40;;
21645;SDS011;10984;45.712;4.800;2023-03-01T08:11:56;22.05;;;11.40;;
21645;SDS011;10984;45.712;4.800;2023-03-01T08:14:24;20.65;;;11.32;;
21645;SDS011;10984;45.712;4.800;2023-03-01T08:16:50;22.00;;;10.15;;
21645;SDS011;10984;45.712;4.800;2023-03-01T08:19:16;23.10;;;11.38;;
21645;SDS011;10984;45.712;4.800;2023-03-01T08:21:42;24.50;;;11.90;;
21645;SDS011;10984;45.712;4.800;2023-03-01T08:24:07;21.95;;;10.20;;
21645;SDS011;10984;45.712;4.800;2023-03-01T08:26:35;17.95;;;10.05;;
21645;SDS011;10984;45.712;4.800;2023-03-01T08:29:01;22.92;;;11.23;;
21645;SDS011;10984;45.712;4.800;2023-03-01T08:34:13;22.77;;;11.73;;
21645;SDS011;10984;45.712;4.800;2023-03-01T08:36:41;23.33;;;11.18;;
21645;SDS011;10984;45.712;4.800;2023-03-01T08:39:09;20.30;;;11.00;;
21645;SDS011;10984;45.712;4.800;2023-03-01T08:41:37;24.90;;;11.38;;
21645;SDS011;10984;45.712;4.800;2023-03-01T08:44:03;22.25;;;11.45;;
21645;SDS011;10984;45.712;4.800;2023-03-01T08:46:30;20.02;;;10.38;;
21645;SDS011;10984;45.712;4.800;2023-03-01T08:49:17;18.45;;;10.80;;
21645;SDS011;10984;45.712;4.800;2023-03-01T08:51:43;18.58;;;10.32;;
21645;SDS011;10984;45.712;4.800;2023-03-01T08:54:11;18.13;;;9.23;;
21645;SDS011;10984;45.712;4.800;2023-03-01T08:56:41;20.52;;;10.90;;
21645;SDS011;10984;45.712;4.800;2023-03-01T08:59:07;22.38;;;11.15;;
21645;SDS011;10984;45.712;4.800;2023-03-01T09:01:34;21.38;;;10.88;;
21645;SDS011;10984;45.712;4.800;2023-03-01T09:04:01;20.38;;;10.60;;
21645;SDS011;10984;45.712;4.800;2023-03-01T09:06:26;21.65;;;10.90;;
21645;SDS011;10984;45.712;4.800;2023-03-01T09:08:57;20.50;;;10.73;;
21645;SDS011;10984;45.712;4.800;2023-03-01T09:11:23;21.38;;;10.88;;
21645;SDS011;10984;45.712;4.800;2023-03-01T09:13:48;21.42;;;11.48;;
21645;SDS011;10984;45.712;4.800;2023-03-01T09:16:16;23.83;;;12.15;;
21645;SDS011;10984;45.712;4.800;2023-03-01T09:18:44;20.65;;;11.30;;
21645;SDS011;10984;45.712;4.800;2023-03-01T09:21:12;20.65;;;11.07;;
21645;SDS011;10984;45.712;4.800;2023-03-01T09:23:43;21.63;;;11.70;;
21645;SDS011;10984;45.712;4.800;2023-03-01T09:26:11;22.50;;;10.95;;
21645;SDS011;10984;45.712;4.800;2023-03-01T09:28:39;22.13;;;11.52;;
21645;SDS011;10984;45.712;4.800;2023-03-01T09:31:24;21.45;;;11.25;;
21645;SDS011;10984;45.712;4.800;2023-03-01T09:33:51;18.63;;;10.50;;
21645;SDS011;10984;45.712;4.800;2023-03-01T09:36:19;23.35;;;11.18;;
21645;SDS011;10984;45.712;4.800;2023-03-01T09:38:47;24.60;;;12.38;;
21645;SDS011;10984;45.712;4.800;2023-03-01T09:47:04;22.95;;;12.32;;
21645;SDS011;10984;45.712;4.800;2023-03-01T09:49:35;23.02;;;10.88;;
21645;SDS011;10984;45.712;4.800;2023-03-01T09:55:08;23.35;;;12.68;;
21645;SDS011;10984;45.712;4.800;2023-03-01T10:03:44;25.17;;;11.40;;
21645;SDS011;10984;45.712;4.800;2023-03-01T10:06:33;23.17;;;11.35;;
21645;SDS011;10984;45.712;4.800;2023-03-01T10:11:45;19.83;;;11.20;;
21645;SDS011;10984;45.712;4.800;2023-03-01T10:23:41;21.35;;;12.30;;
21645;SDS011;10984;45.712;4.800;2023-03-01T10:29:11;23.33;;;12.63;;
21645;SDS011;10984;45.712;4.800;2023-03-01T10:31:39;22.30;;;11.40;;
21645;SDS011;10984;45.712;4.800;2023-03-01T10:45:40;27.60;;;12.57;;
21645;SDS011;10984;45.712;4.800;2023-03-01T10:53:41;26.27;;;12.30;;
21645;SDS011;10984;45.712;4.800;2023-03-01T10:58:36;25.48;;;11.77;;
21645;SDS011;10984;45.712;4.800;2023-03-01T11:01:05;22.33;;;12.25;;
21645;SDS011;10984;45.712;4.800;2023-03-01T11:04:03;24.65;;;12.73;;
21645;SDS011;10984;45.712;4.800;2023-03-01T11:06:47;24.17;;;12.10;;
21645;SDS011;10984;45.712;4.800;2023-03-01T11:09:24;26.40;;;12.95;;
21645;SDS011;10984;45.712;4.800;2023-03-01T11:14:39;22.55;;;12.25;;
21645;SDS011;10984;45.712;4.800;2023-03-01T11:17:30;23.05;;;11.88;;
21645;SDS011;10984;45.712;4.800;2023-03-01T11:28:32;21.48;;;12.25;;
21645;SDS011;10984;45.712;4.800;2023-03-01T11:31:05;26.45;;;13.35;;
21645;SDS011;10984;45.712;4.800;2023-03-01T11:36:40;20.20;;;12.30;;
21645;SDS011;10984;45.712;4.800;2023-03-01T11:44:39;23.98;;;12.70;;
21645;SDS011;10984;45.712;4.800;2023-03-01T12:40:34;25.65;;;12.10;;
21645;SDS011;10984;45.712;4.800;2023-03-01T12:54:40;22.13;;;12.25;;
21645;SDS011;10984;45.712;4.800;2023-03-01T13:00:32;23.00;;;11.98;;
21645;SDS011;10984;45.712;4.800;2023-03-01T13:23:30;25.30;;;13.65;;
21645;SDS011;10984;45.712;4.800;2023-03-01T13:26:15;25.00;;;12.70;;
21645;SDS011;10984;45.712;4.800;2023-03-01T13:33:52;26.52;;;13.68;;
21645;SDS011;10984;45.712;4.800;2023-03-01T13:55:18;22.35;;;12.75;;
21645;SDS011;10984;45.712;4.800;2023-03-01T13:57:49;26.20;;;12.55;;
21645;SDS011;10984;45.712;4.800;2023-03-01T14:08:37;25.33;;;12.52;;
21645;SDS011;10984;45.712;4.800;2023-03-01T14:22:57;27.50;;;14.10;;
21645;SDS011;10984;45.712;4.800;2023-03-01T14:25:27;31.13;;;12.38;;
21645;SDS011;10984;45.712;4.800;2023-03-01T14:30:38;27.88;;;13.70;;
21645;SDS011;10984;45.712;4.800;2023-03-01T14:33:17;28.83;;;13.70;;
21645;SDS011;10984;45.712;4.800;2023-03-01T14:41:17;25.75;;;13.27;;
21645;SDS011;10984;45.712;4.800;2023-03-01T14:43:46;25.90;;;13.60;;
21645;SDS011;10984;45.712;4.800;2023-03-01T14:49:17;28.38;;;13.82;;
21645;SDS011;10984;45.712;4.800;2023-03-01T15:00:03;24.67;;;13.63;;
21645;SDS011;10984;45.712;4.800;2023-03-01T15:02:31;28.92;;;14.60;;
21645;SDS011;10984;45.712;4.800;2023-03-01T15:05:00;24.05;;;11.65;;
21645;SDS011;10984;45.712;4.800;2023-03-01T15:07:30;25.13;;;12.95;;
21645;SDS011;10984;45.712;4.800;2023-03-01T15:09:59;26.10;;;12.82;;
21645;SDS011;10984;45.712;4.800;2023-03-01T15:26:44;25.98;;;13.90;;
21645;SDS011;10984;45.712;4.800;2023-03-01T15:32:06;29.08;;;14.63;;
21645;SDS011;10984;45.712;4.800;2023-03-01T15:41:00;28.45;;;14.50;;
21645;SDS011;10984;45.712;4.800;2023-03-01T15:55:22;26.70;;;14.15;;
21645;SDS011;10984;45.712;4.800;2023-03-01T15:57:49;29.65;;;14.95;;
21645;SDS011;10984;45.712;4.800;2023-03-01T16:00:23;25.23;;;12.93;;
21645;SDS011;10984;45.712;4.800;2023-03-01T16:02:49;31.45;;;15.88;;
21645;SDS011;10984;45.712;4.800;2023-03-01T16:05:17;27.83;;;15.13;;
21645;SDS011;10984;45.712;4.800;2023-03-01T16:07:44;29.85;;;14.95;;
21645;SDS011;10984;45.712;4.800;2023-03-01T16:10:09;27.42;;;14.38;;
21645;SDS011;10984;45.712;4.800;2023-03-01T16:12:35;28.27;;;13.60;;
21645;SDS011;10984;45.712;4.800;2023-03-01T16:15:00;33.13;;;15.63;;
21645;SDS011;10984;45.712;4.800;2023-03-01T16:17:27;26.45;;;14.13;;
21645;SDS011;10984;45.712;4.800;2023-03-01T16:19:53;31.08;;;14.80;;
21645;SDS011;10984;45.712;4.800;2023-03-01T16:22:18;25.45;;;13.98;;
21645;SDS011;10984;45.712;4.800;2023-03-01T16:24:49;27.92;;;14.05;;
21645;SDS011;10984;45.712;4.800;2023-03-01T16:27:15;28.02;;;14.00;;
21645;SDS011;10984;45.712;4.800;2023-03-01T16:29:41;26.20;;;14.43;;
21645;SDS011;10984;45.712;4.800;2023-03-01T16:32:06;29.67;;;15.02;;
21645;SDS011;10984;45.712;4.800;2023-03-01T16:34:32;25.75;;;13.00;;
21645;SDS011;10984;45.712;4.800;2023-03-01T16:36:57;30.83;;;14.40;;
21645;SDS011;10984;45.712;4.800;2023-03-01T16:39:23;29.50;;;14.18;;
21645;SDS011;10984;45.712;4.800;2023-03-01T16:41:48;27.20;;;13.93;;
21645;SDS011;10984;45.712;4.800;2023-03-01T16:44:14;28.35;;;14.70;;
21645;SDS011;10984;45.712;4.800;2023-03-01T16:46:41;32.33;;;15.48;;
21645;SDS011;10984;45.712;4.800;2023-03-01T16:49:08;29.40;;;15.38;;
21645;SDS011;10984;45.712;4.800;2023-03-01T16:51:34;23.98;;;13.60;;
21645;SDS011;10984;45.712;4.800;2023-03-01T16:54:00;26.45;;;14.38;;
21645;SDS011;10984;45.712;4.800;2023-03-01T16:56:26;26.52;;;14.25;;
21645;SDS011;10984;45.712;4.800;2023-03-01T16:58:53;29.63;;;15.25;;
21645;SDS011;10984;45.712;4.800;2023-03-01T17:01:19;31.33;;;14.82;;
21645;SDS011;10984;45.712;4.800;2023-03-01T17:03:49;28.08;;;13.38;;
21645;SDS011;10984;45.712;4.800;2023-03-01T17:06:16;30.63;;;14.32;;
21645;SDS011;10984;45.712;4.800;2023-03-01T17:08:45;27.13;;;13.43;;
21645;SDS011;10984;45.712;4.800;2023-03-01T17:13:56;35.20;;;14.43;;
21645;SDS011;10984;45.712;4.800;2023-03-01T17:16:21;30.42;;;14.30;;
21645;SDS011;10984;45.712;4.800;2023-03-01T17:18:47;31.27;;;14.50;;
21645;SDS011;10984;45.712;4.800;2023-03-01T17:21:14;29.10;;;14.05;;
21645;SDS011;10984;45.712;4.800;2023-03-01T17:23:41;28.17;;;14.90;;
21645;SDS011;10984;45.712;4.800;2023-03-01T17:26:08;30.90;;;16.20;;
21645;SDS011;10984;45.712;4.800;2023-03-01T17:28:35;31.73;;;16.40;;
21645;SDS011;10984;45.712;4.800;2023-03-01T17:31:02;29.20;;;14.98;;
21645;SDS011;10984;45.712;4.800;2023-03-01T17:33:29;30.90;;;15.70;;
21645;SDS011;10984;45.712;4.800;2023-03-01T17:35:55;28.85;;;15.15;;
21645;SDS011;10984;45.712;4.800;2023-03-01T17:38:21;32.85;;;15.73;;
21645;SDS011;10984;45.712;4.800;2023-03-01T17:40:47;30.95;;;15.35;;
21645;SDS011;10984;45.712;4.800;2023-03-01T17:43:13;34.22;;;16.85;;
21645;SDS011;10984;45.712;4.800;2023-03-01T17:45:40;42.13;;;21.60;;
21645;SDS011;10984;45.712;4.800;2023-03-01T17:48:08;73.97;;;36.08;;
21645;SDS011;10984;45.712;4.800;2023-03-01T17:50:35;69.90;;;34.15;;
21645;SDS011;10984;45.712;4.800;2023-03-01T17:53:01;65.40;;;32.17;;
21645;SDS011;10984;45.712;4.800;2023-03-01T17:55:31;50.88;;;24.92;;
21645;SDS011;10984;45.712;4.800;2023-03-01T17:57:57;47.72;;;25.23;;
21645;SDS011;10984;45.712;4.800;2023-03-01T18:00:22;48.78;;;23.63;;
21645;SDS011;10984;45.712;4.800;2023-03-01T18:02:48;33.63;;;19.13;;
21645;SDS011;10984;45.712;4.800;2023-03-01T18:05:14;33.53;;;18.05;;
21645;SDS011;10984;45.712;4.800;2023-03-01T18:07:40;32.25;;;16.55;;
21645;SDS011;10984;45.712;4.800;2023-03-01T18:10:05;34.05;;;15.85;;
21645;SDS011;10984;45.712;4.800;2023-03-01T18:12:31;24.08;;;12.52;;
21645;SDS011;10984;45.712;4.800;2023-03-01T18:14:57;23.90;;;12.02;;
21645;SDS011;10984;45.712;4.800;2023-03-01T18:17:23;25.10;;;12.95;;
21645;SDS011;10984;45.712;4.800;2023-03-01T18:19:49;25.65;;;11.35;;
21645;SDS011;10984;45.712;4.800;2023-03-01T18:22:15;23.52;;;12.43;;
21645;SDS011;10984;45.712;4.800;2023-03-01T18:24:41;27.75;;;13.93;;
21645;SDS011;10984;45.712;4.800;2023-03-01T18:27:07;25.63;;;12.02;;
21645;SDS011;10984;45.712;4.800;2023-03-01T18:29:33;29.42;;;12.63;;
21645;SDS011;10984;45.712;4.800;2023-03-01T18:32:00;26.05;;;12.90;;
21645;SDS011;10984;45.712;4.800;2023-03-01T18:34:26;27.17;;;12.13;;
21645;SDS011;10984;45.712;4.800;2023-03-01T18:36:52;25.13;;;12.48;;
21645;SDS011;10984;45.712;4.800;2023-03-01T18:39:20;21.40;;;11.68;;
21645;SDS011;10984;45.712;4.800;2023-03-01T18:41:46;25.88;;;12.65;;
21645;SDS011;10984;45.712;4.800;2023-03-01T18:44:12;29.17;;;13.25;;
21645;SDS011;10984;45.712;4.800;2023-03-01T18:46:38;25.52;;;12.75;;
21645;SDS011;10984;45.712;4.800;2023-03-01T18:49:05;25.65;;;13.55;;
21645;SDS011;10984;45.712;4.800;2023-03-01T18:51:31;26.52;;;12.98;;
21645;SDS011;10984;45.712;4.800;2023-03-01T18:53:59;28.00;;;13.23;;
21645;SDS011;10984;45.712;4.800;2023-03-01T18:56:25;28.20;;;12.93;;
21645;SDS011;10984;45.712;4.800;2023-03-01T18:58:53;26.77;;;13.82;;
21645;SDS011;10984;45.712;4.800;2023-03-01T19:01:21;29.95;;;13.50;;
21645;SDS011;10984;45.712;4.800;2023-03-01T19:03:48;23.27;;;11.85;;
21645;SDS011;10984;45.712;4.800;2023-03-01T19:06:14;27.40;;;12.80;;
21645;SDS011;10984;45.712;4.800;2023-03-01T19:08:40;24.83;;;12.35;;
21645;SDS011;10984;45.712;4.800;2023-03-01T19:11:08;24.98;;;12.23;;
21645;SDS011;10984;45.712;4.800;2023-03-01T19:13:35;28.55;;;13.07;;
21645;SDS011;10984;45.712;4.800;2023-03-01T19:18:53;24.80;;;13.20;;
21645;SDS011;10984;45.712;4.800;2023-03-01T19:21:29;24.63;;;12.32;;